sensor_id;sensor_type;location;lat;lon;timestamp;temperature;humidity
32706;DHT22;19094;50.972;3.538;2023-03-16T00:01:14;13.30;57.70
32706;DHT22;19094;50.972;3.538;2023-03-16T00:03:39;13.30;57.90
32706;DHT22;19094;50.972;3.538;2023-03-16T00:06:05;13.30;57.80
32706;DHT22;19094;50.972;3.538;2023-03-16T00:08:31;13.20;57.80
32706;DHT22;19094;50.972;3.538;2023-03-16T00:10:57;13.20;57.90
32706;DHT22;19094;50.972;3.538;2023-03-16T00:13:23;13.20;57.90
32706;DHT22;19094;50.972;3.538;2023-03-16T00:15:54;13.20;57.90
32706;DHT22;19094;50.972;3.538;2023-03-16T00:18:22;13.20;57.80
32706;DHT22;19094;50.972;3.538;2023-03-16T00:20:52;13.20;57.90
32706;DHT22;19094;50.972;3.538;2023-03-16T00:23:18;13.20;57.90
32706;DHT22;19094;50.972;3.538;2023-03-16T00:25:44;13.20;58.50
32706;DHT22;19094;50.972;3.538;2023-03-16T00:28:09;13.20;58.00
32706;DHT22;19094;50.972;3.538;2023-03-16T00:30:38;13.20;57.90
32706;DHT22;19094;50.972;3.538;2023-03-16T00:33:03;13.20;58.00
32706;DHT22;19094;50.972;3.538;2023-03-16T00:35:29;13.10;58.10
32706;DHT22;19094;50.972;3.538;2023-03-16T00:37:59;13.20;58.20
32706;DHT22;19094;50.972;3.538;2023-03-16T00:40:24;13.20;58.20
32706;DHT22;19094;50.972;3.538;2023-03-16T00:42:50;13.20;58.20
32706;DHT22;19094;50.972;3.538;2023-03-16T00:45:16;13.20;58.20
32706;DHT22;19094;50.972;3.538;2023-03-16T00:47:41;13.20;58.20
32706;DHT22;19094;50.972;3.538;2023-03-16T00:50:07;13.20;58.20
32706;DHT22;19094;50.972;3.538;2023-03-16T00:52:33;13.20;58.20
32706;DHT22;19094;50.972;3.538;2023-03-16T00:54:59;13.10;58.20
32706;DHT22;19094;50.972;3.538;2023-03-16T00:57:27;13.20;58.30
32706;DHT22;19094;50.972;3.538;2023-03-16T00:59:54;13.20;58.40
32706;DHT22;19094;50.972;3.538;2023-03-16T01:02:21;13.20;58.20
32706;DHT22;19094;50.972;3.538;2023-03-16T01:04:51;13.10;58.30
32706;DHT22;19094;50.972;3.538;2023-03-16T01:07:17;13.10;58.40
32706;DHT22;19094;50.972;3.538;2023-03-16T01:09:43;13.10;58.40
32706;DHT22;19094;50.972;3.538;2023-03-16T01:12:15;13.10;59.10
32706;DHT22;19094;50.972;3.538;2023-03-16T01:14:42;13.10;58.40
32706;DHT22;19094;50.972;3.538;2023-03-16T01:17:10;13.10;58.60
32706;DHT22;19094;50.972;3.538;2023-03-16T01:19:39;13.10;58.60
32706;DHT22;19094;50.972;3.538;2023-03-16T01:22:06;13.10;58.60
32706;DHT22;19094;50.972;3.538;2023-03-16T01:24:32;13.10;58.60
32706;DHT22;19094;50.972;3.538;2023-03-16T01:26:59;13.10;58.70
32706;DHT22;19094;50.972;3.538;2023-03-16T01:29:25;13.00;58.70
32706;DHT22;19094;50.972;3.538;2023-03-16T01:31:51;13.10;58.70
32706;DHT22;19094;50.972;3.538;2023-03-16T01:34:17;13.00;58.70
32706;DHT22;19094;50.972;3.538;2023-03-16T01:36:47;13.00;58.70
32706;DHT22;19094;50.972;3.538;2023-03-16T01:39:14;13.00;58.70
32706;DHT22;19094;50.972;3.538;2023-03-16T01:41:40;13.00;58.60
32706;DHT22;19094;50.972;3.538;2023-03-16T01:44:14;13.00;58.70
32706;DHT22;19094;50.972;3.538;2023-03-16T01:46:41;13.00;58.70
32706;DHT22;19094;50.972;3.538;2023-03-16T01:49:15;13.00;58.90
32706;DHT22;19094;50.972;3.538;2023-03-16T01:51:54;13.00;58.90
32706;DHT22;19094;50.972;3.538;2023-03-16T01:54:27;13.00;59.00
32706;DHT22;19094;50.972;3.538;2023-03-16T01:59:41;13.00;59.00
32706;DHT22;19094;50.972;3.538;2023-03-16T02:02:08;12.90;59.00
32706;DHT22;19094;50.972;3.538;2023-03-16T02:04:37;12.90;59.70
32706;DHT22;19094;50.972;3.538;2023-03-16T02:07:06;13.00;59.20
32706;DHT22;19094;50.972;3.538;2023-03-16T02:09:38;13.00;59.10
32706;DHT22;19094;50.972;3.538;2023-03-16T02:12:05;13.00;59.10
32706;DHT22;19094;50.972;3.538;2023-03-16T02:14:32;12.90;59.20
32706;DHT22;19094;50.972;3.538;2023-03-16T02:16:58;12.90;59.20
32706;DHT22;19094;50.972;3.538;2023-03-16T02:22:09;12.90;59.20
32706;DHT22;19094;50.972;3.538;2023-03-16T02:24:36;12.90;59.30
32706;DHT22;19094;50.972;3.538;2023-03-16T02:27:12;12.90;59.30
32706;DHT22;19094;50.972;3.538;2023-03-16T02:32:31;12.90;59.20
32706;DHT22;19094;50.972;3.538;2023-03-16T02:34:58;12.90;59.40
32706;DHT22;19094;50.972;3.538;2023-03-16T02:37:25;12.90;59.40
32706;DHT22;19094;50.972;3.538;2023-03-16T02:39:51;12.90;60.00
32706;DHT22;19094;50.972;3.538;2023-03-16T02:42:20;12.90;59.30
32706;DHT22;19094;50.972;3.538;2023-03-16T02:44:56;12.90;59.40
32706;DHT22;19094;50.972;3.538;2023-03-16T02:47:42;12.90;59.40
32706;DHT22;19094;50.972;3.538;2023-03-16T02:50:10;12.90;59.40
32706;DHT22;19094;50.972;3.538;2023-03-16T02:52:37;12.80;59.40
32706;DHT22;19094;50.972;3.538;2023-03-16T02:55:05;12.90;59.50
32706;DHT22;19094;50.972;3.538;2023-03-16T02:57:31;12.90;59.40
32706;DHT22;19094;50.972;3.538;2023-03-16T02:59:57;12.80;59.40
32706;DHT22;19094;50.972;3.538;2023-03-16T03:02:22;12.80;59.50
32706;DHT22;19094;50.972;3.538;2023-03-16T03:04:48;12.90;59.50
32706;DHT22;19094;50.972;3.538;2023-03-16T03:07:14;12.80;59.40
32706;DHT22;19094;50.972;3.538;2023-03-16T03:09:41;12.90;59.40
32706;DHT22;19094;50.972;3.538;2023-03-16T03:12:11;12.80;59.40
32706;DHT22;19094;50.972;3.538;2023-03-16T03:14:38;12.80;59.40
32706;DHT22;19094;50.972;3.538;2023-03-16T03:17:05;12.80;59.30
32706;DHT22;19094;50.972;3.538;2023-03-16T03:19:33;12.80;59.30
32706;DHT22;19094;50.972;3.538;2023-03-16T03:22:00;12.80;59.30
32706;DHT22;19094;50.972;3.538;2023-03-16T03:24:29;12.80;59.30
32706;DHT22;19094;50.972;3.538;2023-03-16T03:26:55;12.80;59.30
32706;DHT22;19094;50.972;3.538;2023-03-16T03:29:20;12.80;59.20
32706;DHT22;19094;50.972;3.538;2023-03-16T03:31:46;12.80;59.20
32706;DHT22;19094;50.972;3.538;2023-03-16T03:34:12;12.80;59.30
32706;DHT22;19094;50.972;3.538;2023-03-16T03:36:37;12.80;59.30
32706;DHT22;19094;50.972;3.538;2023-03-16T03:39:03;12.70;59.80
32706;DHT22;19094;50.972;3.538;2023-03-16T03:41:30;12.80;59.40
32706;DHT22;19094;50.972;3.538;2023-03-16T03:43:58;12.80;59.40
32706;DHT22;19094;50.972;3.538;2023-03-16T03:46:24;12.80;59.40
32706;DHT22;19094;50.972;3.538;2023-03-16T03:48:50;12.80;59.30
32706;DHT22;19094;50.972;3.538;2023-03-16T03:51:16;12.80;59.30
32706;DHT22;19094;50.972;3.538;2023-03-16T03:53:41;12.80;59.80
32706;DHT22;19094;50.972;3.538;2023-03-16T03:56:07;12.80;59.20
32706;DHT22;19094;50.972;3.538;2023-03-16T03:58:33;12.80;59.20
32706;DHT22;19094;50.972;3.538;2023-03-16T04:00:59;12.80;59.00
32706;DHT22;19094;50.972;3.538;2023-03-16T04:03:24;12.70;59.40
32706;DHT22;19094;50.972;3.538;2023-03-16T04:05:50;12.70;58.80
32706;DHT22;19094;50.972;3.538;2023-03-16T04:08:16;12.80;58.90
32706;DHT22;19094;50.972;3.538;2023-03-16T04:10:41;12.80;58.90
32706;DHT22;19094;50.972;3.538;2023-03-16T04:13:07;12.70;58.90
32706;DHT22;19094;50.972;3.538;2023-03-16T04:15:32;12.70;59.00
32706;DHT22;19094;50.972;3.538;2023-03-16T04:17:59;12.70;58.50
32706;DHT22;19094;50.972;3.538;2023-03-16T04:20:26;12.70;58.60
32706;DHT22;19094;50.972;3.538;2023-03-16T04:22:53;12.70;58.80
32706;DHT22;19094;50.972;3.538;2023-03-16T04:25:24;12.70;58.80
32706;DHT22;19094;50.972;3.538;2023-03-16T04:27:51;12.70;58.80
32706;DHT22;19094;50.972;3.538;2023-03-16T04:30:17;12.70;58.60
32706;DHT22;19094;50.972;3.538;2023-03-16T04:32:42;12.70;58.80
32706;DHT22;19094;50.972;3.538;2023-03-16T04:35:09;12.70;58.50
32706;DHT22;19094;50.972;3.538;2023-03-16T04:37:35;12.60;58.70
32706;DHT22;19094;50.972;3.538;2023-03-16T04:40:00;12.70;58.60
32706;DHT22;19094;50.972;3.538;2023-03-16T04:42:34;12.70;58.70
32706;DHT22;19094;50.972;3.538;2023-03-16T04:45:00;12.70;58.70
32706;DHT22;19094;50.972;3.538;2023-03-16T04:47:26;12.70;58.80
32706;DHT22;19094;50.972;3.538;2023-03-16T04:49:51;12.70;58.70
32706;DHT22;19094;50.972;3.538;2023-03-16T04:52:18;12.70;58.70
32706;DHT22;19094;50.972;3.538;2023-03-16T04:54:44;12.70;58.60
32706;DHT22;19094;50.972;3.538;2023-03-16T04:57:10;12.70;58.60
32706;DHT22;19094;50.972;3.538;2023-03-16T04:59:35;12.60;58.60
32706;DHT22;19094;50.972;3.538;2023-03-16T05:02:01;12.70;58.70
32706;DHT22;19094;50.972;3.538;2023-03-16T05:04:28;12.70;58.60
32706;DHT22;19094;50.972;3.538;2023-03-16T05:06:54;12.70;58.40
32706;DHT22;19094;50.972;3.538;2023-03-16T05:09:19;12.70;58.50
32706;DHT22;19094;50.972;3.538;2023-03-16T05:11:45;12.70;58.20
32706;DHT22;19094;50.972;3.538;2023-03-16T05:14:11;12.70;58.40
32706;DHT22;19094;50.972;3.538;2023-03-16T05:16:36;12.60;58.30
32706;DHT22;19094;50.972;3.538;2023-03-16T05:19:02;12.60;58.40
32706;DHT22;19094;50.972;3.538;2023-03-16T05:21:28;12.60;58.00
32706;DHT22;19094;50.972;3.538;2023-03-16T05:23:56;12.60;58.30
32706;DHT22;19094;50.972;3.538;2023-03-16T05:26:22;12.70;58.20
32706;DHT22;19094;50.972;3.538;2023-03-16T05:28:49;12.60;58.40
32706;DHT22;19094;50.972;3.538;2023-03-16T05:31:16;12.60;57.90
32706;DHT22;19094;50.972;3.538;2023-03-16T05:33:42;12.60;58.10
32706;DHT22;19094;50.972;3.538;2023-03-16T05:36:09;12.60;58.70
32706;DHT22;19094;50.972;3.538;2023-03-16T05:38:35;12.60;57.80
32706;DHT22;19094;50.972;3.538;2023-03-16T05:41:03;12.60;58.00
32706;DHT22;19094;50.972;3.538;2023-03-16T05:43:29;12.60;57.90
32706;DHT22;19094;50.972;3.538;2023-03-16T05:45:56;12.60;57.80
32706;DHT22;19094;50.972;3.538;2023-03-16T05:48:22;12.60;57.40
32706;DHT22;19094;50.972;3.538;2023-03-16T05:50:50;12.60;57.90
32706;DHT22;19094;50.972;3.538;2023-03-16T05:53:17;12.60;58.00
32706;DHT22;19094;50.972;3.538;2023-03-16T05:55:42;12.60;57.80
32706;DHT22;19094;50.972;3.538;2023-03-16T05:58:08;12.50;57.70
32706;DHT22;19094;50.972;3.538;2023-03-16T06:00:34;12.60;57.70
32706;DHT22;19094;50.972;3.538;2023-03-16T06:03:00;12.60;57.50
32706;DHT22;19094;50.972;3.538;2023-03-16T06:05:25;12.50;57.60
32706;DHT22;19094;50.972;3.538;2023-03-16T06:07:52;12.60;57.90
32706;DHT22;19094;50.972;3.538;2023-03-16T06:10:18;12.50;57.20
32706;DHT22;19094;50.972;3.538;2023-03-16T06:12:44;12.50;57.50
32706;DHT22;19094;50.972;3.538;2023-03-16T06:15:10;12.50;57.60
32706;DHT22;19094;50.972;3.538;2023-03-16T06:17:38;12.50;57.70
32706;DHT22;19094;50.972;3.538;2023-03-16T06:20:05;12.60;57.60
32706;DHT22;19094;50.972;3.538;2023-03-16T06:22:39;12.60;57.60
32706;DHT22;19094;50.972;3.538;2023-03-16T06:25:06;12.60;57.50
32706;DHT22;19094;50.972;3.538;2023-03-16T06:27:32;12.50;57.30
32706;DHT22;19094;50.972;3.538;2023-03-16T06:29:58;12.60;57.50
32706;DHT22;19094;50.972;3.538;2023-03-16T06:32:24;12.60;57.40
32706;DHT22;19094;50.972;3.538;2023-03-16T06:34:49;12.50;57.30
32706;DHT22;19094;50.972;3.538;2023-03-16T06:37:16;12.60;57.40
32706;DHT22;19094;50.972;3.538;2023-03-16T06:39:41;12.50;58.00
32706;DHT22;19094;50.972;3.538;2023-03-16T06:42:09;12.50;57.20
32706;DHT22;19094;50.972;3.538;2023-03-16T06:44:34;12.50;57.30
32706;DHT22;19094;50.972;3.538;2023-03-16T06:47:00;12.60;57.20
32706;DHT22;19094;50.972;3.538;2023-03-16T06:49:26;12.60;57.00
32706;DHT22;19094;50.972;3.538;2023-03-16T06:51:51;12.60;57.20
32706;DHT22;19094;50.972;3.538;2023-03-16T06:54:17;12.50;57.20
32706;DHT22;19094;50.972;3.538;2023-03-16T06:56:43;12.50;56.90
32706;DHT22;19094;50.972;3.538;2023-03-16T06:59:08;12.60;57.00
32706;DHT22;19094;50.972;3.538;2023-03-16T07:01:34;12.60;56.80
32706;DHT22;19094;50.972;3.538;2023-03-16T07:04:00;12.60;56.90
32706;DHT22;19094;50.972;3.538;2023-03-16T07:06:26;12.60;56.70
32706;DHT22;19094;50.972;3.538;2023-03-16T07:08:51;12.60;56.70
32706;DHT22;19094;50.972;3.538;2023-03-16T07:11:17;12.60;57.30
32706;DHT22;19094;50.972;3.538;2023-03-16T07:13:43;12.60;56.50
32706;DHT22;19094;50.972;3.538;2023-03-16T07:16:09;12.60;56.50
32706;DHT22;19094;50.972;3.538;2023-03-16T07:18:34;12.70;56.60
32706;DHT22;19094;50.972;3.538;2023-03-16T07:21:02;12.70;56.00
32706;DHT22;19094;50.972;3.538;2023-03-16T07:23:28;12.70;56.00
32706;DHT22;19094;50.972;3.538;2023-03-16T07:25:54;12.70;56.30
32706;DHT22;19094;50.972;3.538;2023-03-16T07:28:20;12.70;56.00
32706;DHT22;19094;50.972;3.538;2023-03-16T07:30:46;12.70;56.00
32706;DHT22;19094;50.972;3.538;2023-03-16T07:33:12;12.70;55.90
32706;DHT22;19094;50.972;3.538;2023-03-16T07:35:38;12.70;55.10
32706;DHT22;19094;50.972;3.538;2023-03-16T07:38:04;12.70;55.70
32706;DHT22;19094;50.972;3.538;2023-03-16T07:40:30;12.70;55.60
32706;DHT22;19094;50.972;3.538;2023-03-16T07:42:56;12.70;55.70
32706;DHT22;19094;50.972;3.538;2023-03-16T07:45:22;12.70;55.30
32706;DHT22;19094;50.972;3.538;2023-03-16T07:47:48;12.80;55.40
32706;DHT22;19094;50.972;3.538;2023-03-16T07:50:13;12.70;55.60
32706;DHT22;19094;50.972;3.538;2023-03-16T07:52:41;12.70;55.40
32706;DHT22;19094;50.972;3.538;2023-03-16T07:55:07;12.70;56.20
32706;DHT22;19094;50.972;3.538;2023-03-16T07:57:33;12.80;55.30
32706;DHT22;19094;50.972;3.538;2023-03-16T07:59:59;12.70;55.30
32706;DHT22;19094;50.972;3.538;2023-03-16T08:02:24;12.80;55.30
32706;DHT22;19094;50.972;3.538;2023-03-16T08:04:50;12.80;55.10
32706;DHT22;19094;50.972;3.538;2023-03-16T08:07:16;12.80;55.30
32706;DHT22;19094;50.972;3.538;2023-03-16T08:09:42;12.80;55.40
32706;DHT22;19094;50.972;3.538;2023-03-16T08:12:09;12.80;55.40
32706;DHT22;19094;50.972;3.538;2023-03-16T08:14:35;12.80;55.20
32706;DHT22;19094;50.972;3.538;2023-03-16T08:17:04;12.80;55.40
32706;DHT22;19094;50.972;3.538;2023-03-16T08:19:30;12.80;54.90
32706;DHT22;19094;50.972;3.538;2023-03-16T08:21:56;12.80;55.10
32706;DHT22;19094;50.972;3.538;2023-03-16T08:24:26;12.80;55.20
32706;DHT22;19094;50.972;3.538;2023-03-16T08:26:52;12.80;55.30
32706;DHT22;19094;50.972;3.538;2023-03-16T08:29:17;12.80;54.90
32706;DHT22;19094;50.972;3.538;2023-03-16T08:31:43;12.90;55.30
32706;DHT22;19094;50.972;3.538;2023-03-16T08:34:09;12.80;55.10
32706;DHT22;19094;50.972;3.538;2023-03-16T08:36:36;12.80;55.30
32706;DHT22;19094;50.972;3.538;2023-03-16T08:39:02;12.80;55.20
32706;DHT22;19094;50.972;3.538;2023-03-16T08:41:30;12.90;55.30
32706;DHT22;19094;50.972;3.538;2023-03-16T08:43:57;12.90;54.90
32706;DHT22;19094;50.972;3.538;2023-03-16T08:46:23;12.90;54.80
32706;DHT22;19094;50.972;3.538;2023-03-16T08:48:49;12.90;54.70
32706;DHT22;19094;50.972;3.538;2023-03-16T08:51:16;12.90;55.00
32706;DHT22;19094;50.972;3.538;2023-03-16T08:53:42;12.90;55.00
32706;DHT22;19094;50.972;3.538;2023-03-16T08:56:11;12.90;55.10
32706;DHT22;19094;50.972;3.538;2023-03-16T08:58:39;12.90;55.00
32706;DHT22;19094;50.972;3.538;2023-03-16T09:01:06;12.90;54.90
32706;DHT22;19094;50.972;3.538;2023-03-16T09:03:34;12.90;54.80
32706;DHT22;19094;50.972;3.538;2023-03-16T09:06:01;12.90;55.00
32706;DHT22;19094;50.972;3.538;2023-03-16T09:08:28;13.00;54.90
32706;DHT22;19094;50.972;3.538;2023-03-16T09:11:08;13.00;54.60
32706;DHT22;19094;50.972;3.538;2023-03-16T09:13:35;13.00;54.40
32706;DHT22;19094;50.972;3.538;2023-03-16T09:16:03;13.00;54.50
32706;DHT22;19094;50.972;3.538;2023-03-16T09:18:29;13.10;54.30
32706;DHT22;19094;50.972;3.538;2023-03-16T09:20:59;13.10;54.60
32706;DHT22;19094;50.972;3.538;2023-03-16T09:23:26;13.10;54.60
32706;DHT22;19094;50.972;3.538;2023-03-16T09:25:52;13.10;54.70
32706;DHT22;19094;50.972;3.538;2023-03-16T09:28:21;13.10;54.70
32706;DHT22;19094;50.972;3.538;2023-03-16T09:30:46;13.10;54.30
32706;DHT22;19094;50.972;3.538;2023-03-16T09:33:14;13.20;54.40
32706;DHT22;19094;50.972;3.538;2023-03-16T09:35:40;13.20;54.30
32706;DHT22;19094;50.972;3.538;2023-03-16T09:38:05;13.20;53.90
32706;DHT22;19094;50.972;3.538;2023-03-16T09:40:32;13.30;54.00
32706;DHT22;19094;50.972;3.538;2023-03-16T09:48:09;13.40;53.90
32706;DHT22;19094;50.972;3.538;2023-03-16T09:50:39;13.50;53.20
32706;DHT22;19094;50.972;3.538;2023-03-16T09:55:38;13.60;52.70
32706;DHT22;19094;50.972;3.538;2023-03-16T09:58:16;13.60;52.50
32706;DHT22;19094;50.972;3.538;2023-03-16T10:06:25;13.90;51.80
32706;DHT22;19094;50.972;3.538;2023-03-16T10:08:57;13.80;52.30
32706;DHT22;19094;50.972;3.538;2023-03-16T10:11:37;13.90;51.80
32706;DHT22;19094;50.972;3.538;2023-03-16T10:19:53;14.30;49.10
32706;DHT22;19094;50.972;3.538;2023-03-16T10:22:43;14.40;48.70
32706;DHT22;19094;50.972;3.538;2023-03-16T10:27:45;14.50;48.60
32706;DHT22;19094;50.972;3.538;2023-03-16T10:32:44;14.40;49.90
32706;DHT22;19094;50.972;3.538;2023-03-16T10:35:40;14.50;49.30
32706;DHT22;19094;50.972;3.538;2023-03-16T10:38:29;14.60;48.80
32706;DHT22;19094;50.972;3.538;2023-03-16T10:40:59;14.50;48.90
32706;DHT22;19094;50.972;3.538;2023-03-16T10:43:25;14.60;48.90
32706;DHT22;19094;50.972;3.538;2023-03-16T10:45:57;14.50;49.20
32706;DHT22;19094;50.972;3.538;2023-03-16T10:48:26;14.50;49.40
32706;DHT22;19094;50.972;3.538;2023-03-16T10:50:56;14.50;49.20
32706;DHT22;19094;50.972;3.538;2023-03-16T10:53:27;14.50;49.80
32706;DHT22;19094;50.972;3.538;2023-03-16T10:55:59;14.40;49.90
32706;DHT22;19094;50.972;3.538;2023-03-16T10:58:30;14.60;49.00
32706;DHT22;19094;50.972;3.538;2023-03-16T11:00:56;14.60;49.20
32706;DHT22;19094;50.972;3.538;2023-03-16T11:03:28;14.80;48.10
32706;DHT22;19094;50.972;3.538;2023-03-16T11:05:58;14.70;48.80
32706;DHT22;19094;50.972;3.538;2023-03-16T11:08:26;14.70;48.70
32706;DHT22;19094;50.972;3.538;2023-03-16T11:11:00;14.70;48.70
32706;DHT22;19094;50.972;3.538;2023-03-16T11:13:34;14.70;49.00
32706;DHT22;19094;50.972;3.538;2023-03-16T11:16:22;14.60;50.40
32706;DHT22;19094;50.972;3.538;2023-03-16T11:18:55;14.60;50.00
32706;DHT22;19094;50.972;3.538;2023-03-16T11:21:40;14.50;50.00
32706;DHT22;19094;50.972;3.538;2023-03-16T11:24:18;14.60;49.20
32706;DHT22;19094;50.972;3.538;2023-03-16T11:26:52;14.80;48.70
32706;DHT22;19094;50.972;3.538;2023-03-16T11:29:43;14.80;48.70
32706;DHT22;19094;50.972;3.538;2023-03-16T11:32:24;14.90;48.00
32706;DHT22;19094;50.972;3.538;2023-03-16T11:34:50;14.90;48.00
32706;DHT22;19094;50.972;3.538;2023-03-16T11:37:24;15.00;48.20
32706;DHT22;19094;50.972;3.538;2023-03-16T11:43:25;15.10;47.80
32706;DHT22;19094;50.972;3.538;2023-03-16T11:48:52;15.30;46.90
32706;DHT22;19094;50.972;3.538;2023-03-16T11:51:40;15.50;47.30
32706;DHT22;19094;50.972;3.538;2023-03-16T11:54:31;15.60;46.50
32706;DHT22;19094;50.972;3.538;2023-03-16T11:59:49;15.80;46.80
32706;DHT22;19094;50.972;3.538;2023-03-16T12:02:45;16.00;46.30
32706;DHT22;19094;50.972;3.538;2023-03-16T12:10:47;16.20;45.80
32706;DHT22;19094;50.972;3.538;2023-03-16T12:16:05;16.30;45.60
32706;DHT22;19094;50.972;3.538;2023-03-16T12:19:06;16.40;45.00
32706;DHT22;19094;50.972;3.538;2023-03-16T12:21:42;16.60;44.50
32706;DHT22;19094;50.972;3.538;2023-03-16T12:24:33;16.60;44.90
32706;DHT22;19094;50.972;3.538;2023-03-16T12:27:00;16.70;45.30
32706;DHT22;19094;50.972;3.538;2023-03-16T12:29:37;16.70;45.60
32706;DHT22;19094;50.972;3.538;2023-03-16T12:32:24;16.80;44.60
32706;DHT22;19094;50.972;3.538;2023-03-16T12:35:21;17.00;44.20
32706;DHT22;19094;50.972;3.538;2023-03-16T12:37:59;17.10;44.40
32706;DHT22;19094;50.972;3.538;2023-03-16T12:43:37;17.50;44.60
32706;DHT22;19094;50.972;3.538;2023-03-16T12:46:10;17.50;44.00
32706;DHT22;19094;50.972;3.538;2023-03-16T12:51:07;17.70;43.00
32706;DHT22;19094;50.972;3.538;2023-03-16T12:53:52;17.80;43.60
32706;DHT22;19094;50.972;3.538;2023-03-16T12:56:46;17.90;42.60
32706;DHT22;19094;50.972;3.538;2023-03-16T12:59:17;18.10;42.00
32706;DHT22;19094;50.972;3.538;2023-03-16T13:01:47;18.30;41.70
32706;DHT22;19094;50.972;3.538;2023-03-16T13:04:14;18.40;41.70
32706;DHT22;19094;50.972;3.538;2023-03-16T13:07:08;18.40;42.20
32706;DHT22;19094;50.972;3.538;2023-03-16T13:09:41;18.40;41.70
32706;DHT22;19094;50.972;3.538;2023-03-16T13:12:19;18.60;41.60
32706;DHT22;19094;50.972;3.538;2023-03-16T13:14:46;18.60;41.50
32706;DHT22;19094;50.972;3.538;2023-03-16T13:17:23;18.70;41.20
32706;DHT22;19094;50.972;3.538;2023-03-16T13:20:06;18.90;41.10
32706;DHT22;19094;50.972;3.538;2023-03-16T13:22:50;18.90;40.80
32706;DHT22;19094;50.972;3.538;2023-03-16T13:25:39;18.90;41.60
32706;DHT22;19094;50.972;3.538;2023-03-16T13:28:14;19.00;40.90
32706;DHT22;19094;50.972;3.538;2023-03-16T13:30:48;19.20;40.60
32706;DHT22;19094;50.972;3.538;2023-03-16T13:33:23;19.30;40.00
32706;DHT22;19094;50.972;3.538;2023-03-16T13:35:51;19.50;40.10
32706;DHT22;19094;50.972;3.538;2023-03-16T13:38:20;19.60;39.40
32706;DHT22;19094;50.972;3.538;2023-03-16T13:40:53;19.70;38.50
32706;DHT22;19094;50.972;3.538;2023-03-16T13:43:25;19.80;38.50
32706;DHT22;19094;50.972;3.538;2023-03-16T13:45:55;20.00;38.70
32706;DHT22;19094;50.972;3.538;2023-03-16T13:48:21;20.10;38.60
32706;DHT22;19094;50.972;3.538;2023-03-16T13:50:56;20.10;38.50
32706;DHT22;19094;50.972;3.538;2023-03-16T13:53:26;20.20;38.50
32706;DHT22;19094;50.972;3.538;2023-03-16T13:55:54;20.20;38.00
32706;DHT22;19094;50.972;3.538;2023-03-16T13:58:34;20.20;37.90
32706;DHT22;19094;50.972;3.538;2023-03-16T14:01:04;20.40;37.50
32706;DHT22;19094;50.972;3.538;2023-03-16T14:03:35;20.50;37.60
32706;DHT22;19094;50.972;3.538;2023-03-16T14:06:03;20.50;36.90
32706;DHT22;19094;50.972;3.538;2023-03-16T14:08:29;20.70;36.80
32706;DHT22;19094;50.972;3.538;2023-03-16T14:10:56;20.80;36.80
32706;DHT22;19094;50.972;3.538;2023-03-16T14:16:17;20.90;37.00
32706;DHT22;19094;50.972;3.538;2023-03-16T14:19:02;20.80;36.50
32706;DHT22;19094;50.972;3.538;2023-03-16T14:21:30;20.80;36.80
32706;DHT22;19094;50.972;3.538;2023-03-16T14:24:01;20.70;36.10
32706;DHT22;19094;50.972;3.538;2023-03-16T14:26:47;20.80;36.40
32706;DHT22;19094;50.972;3.538;2023-03-16T14:29:25;20.90;37.10
32706;DHT22;19094;50.972;3.538;2023-03-16T14:31:51;20.80;35.90
32706;DHT22;19094;50.972;3.538;2023-03-16T14:36:52;20.80;35.60
32706;DHT22;19094;50.972;3.538;2023-03-16T14:39:21;20.80;36.40
32706;DHT22;19094;50.972;3.538;2023-03-16T14:41:51;20.70;35.60
32706;DHT22;19094;50.972;3.538;2023-03-16T14:44:23;20.80;36.20
32706;DHT22;19094;50.972;3.538;2023-03-16T14:46:53;20.80;35.50
32706;DHT22;19094;50.972;3.538;2023-03-16T14:49:34;20.90;35.30
32706;DHT22;19094;50.972;3.538;2023-03-16T14:52:20;21.00;35.50
32706;DHT22;19094;50.972;3.538;2023-03-16T14:54:48;21.10;34.50
32706;DHT22;19094;50.972;3.538;2023-03-16T14:57:17;21.20;35.30
32706;DHT22;19094;50.972;3.538;2023-03-16T14:59:44;21.40;35.80
32706;DHT22;19094;50.972;3.538;2023-03-16T15:02:22;21.30;34.50
32706;DHT22;19094;50.972;3.538;2023-03-16T15:04:49;21.40;34.10
32706;DHT22;19094;50.972;3.538;2023-03-16T15:07:28;21.30;34.10
32706;DHT22;19094;50.972;3.538;2023-03-16T15:12:41;21.00;34.10
32706;DHT22;19094;50.972;3.538;2023-03-16T15:15:17;20.90;34.70
32706;DHT22;19094;50.972;3.538;2023-03-16T15:17:44;20.90;34.90
32706;DHT22;19094;50.972;3.538;2023-03-16T15:20:18;21.00;34.30
32706;DHT22;19094;50.972;3.538;2023-03-16T15:22:45;21.20;34.20
32706;DHT22;19094;50.972;3.538;2023-03-16T15:27:45;21.10;34.00
32706;DHT22;19094;50.972;3.538;2023-03-16T15:30:17;21.30;34.40
32706;DHT22;19094;50.972;3.538;2023-03-16T15:32:43;21.30;34.00
32706;DHT22;19094;50.972;3.538;2023-03-16T15:35:09;21.30;34.90
32706;DHT22;19094;50.972;3.538;2023-03-16T15:37:35;21.10;35.50
32706;DHT22;19094;50.972;3.538;2023-03-16T15:40:08;20.70;35.70
32706;DHT22;19094;50.972;3.538;2023-03-16T15:42:35;20.50;35.70
32706;DHT22;19094;50.972;3.538;2023-03-16T15:45:00;20.30;36.90
32706;DHT22;19094;50.972;3.538;2023-03-16T15:47:26;20.10;37.40
32706;DHT22;19094;50.972;3.538;2023-03-16T15:49:52;19.90;37.80
32706;DHT22;19094;50.972;3.538;2023-03-16T15:52:30;19.70;38.40
32706;DHT22;19094;50.972;3.538;2023-03-16T15:54:56;19.50;40.00
32706;DHT22;19094;50.972;3.538;2023-03-16T15:57:27;19.30;40.10
32706;DHT22;19094;50.972;3.538;2023-03-16T15:59:53;19.20;39.40
32706;DHT22;19094;50.972;3.538;2023-03-16T16:02:29;19.10;40.10
32706;DHT22;19094;50.972;3.538;2023-03-16T16:04:57;19.00;40.60
32706;DHT22;19094;50.972;3.538;2023-03-16T16:07:24;18.90;40.50
32706;DHT22;19094;50.972;3.538;2023-03-16T16:09:49;18.80;40.50
32706;DHT22;19094;50.972;3.538;2023-03-16T16:12:17;18.70;40.70
32706;DHT22;19094;50.972;3.538;2023-03-16T16:14:44;18.70;41.40
32706;DHT22;19094;50.972;3.538;2023-03-16T16:17:11;18.50;40.90
32706;DHT22;19094;50.972;3.538;2023-03-16T16:19:40;18.40;41.00
32706;DHT22;19094;50.972;3.538;2023-03-16T16:22:10;18.30;41.70
32706;DHT22;19094;50.972;3.538;2023-03-16T16:24:37;18.30;40.90
32706;DHT22;19094;50.972;3.538;2023-03-16T16:27:03;18.20;41.00
32706;DHT22;19094;50.972;3.538;2023-03-16T16:29:31;18.10;42.00
32706;DHT22;19094;50.972;3.538;2023-03-16T16:31:58;18.00;42.00
32706;DHT22;19094;50.972;3.538;2023-03-16T16:34:25;18.00;42.30
32706;DHT22;19094;50.972;3.538;2023-03-16T16:36:52;17.90;42.50
32706;DHT22;19094;50.972;3.538;2023-03-16T16:39:18;17.80;42.80
32706;DHT22;19094;50.972;3.538;2023-03-16T16:41:44;17.70;43.10
32706;DHT22;19094;50.972;3.538;2023-03-16T16:44:19;17.70;43.50
32706;DHT22;19094;50.972;3.538;2023-03-16T16:46:47;17.60;43.70
32706;DHT22;19094;50.972;3.538;2023-03-16T16:49:18;17.50;43.90